Pagina principale
METAR-TAF:

METAR-TAF

Aeroporti :

Souillac

Brive-la-Gaillarde, Francia

latitudine: 45-02-28N, longitudine: 001-28-59E, altezza: 311 m

Osservazione

Il bollettino è stato emesso 24 minuti fa, alle 23:00 UTC
Vento 2 kt da nord-ovest
Temperature 13°C
Umidità 94%
Pressione 1019 hPa
Visibilità 10 km o più
nessuna nube inferiore a 1500 m e nessun cumulonembo

METAR: LFSL 162300Z AUTO 32002KT CAVOK 13/12 Q1019

Ora: 01:24 (23:24 UTC)

Previsione

Il bollettino è stato emesso 9 ore e 24 minuti fa, alle 14:00 UTC
Previsione valida dal 16 alle 15 UTC al 16 alle 24 UTC
Vento 6 kt da nord
Visibilità 10 km o più
nessuna nube inferiore a 1500 m e nessun cumulonembo
Evoluzione graduale
dal 16 alle 19 UTC al 16 alle 21 UTC
Vento 2 kt da direzioni variabili

TAF: LFSL 161400Z 1615/1624 35006KT CAVOK BECMG 1619/1621 VRB02KT

Osservazioni e previsioni meteorologiche di più di 4000 aeroporti (messaggi METAR e TAF).

Le stazioni disponibili sono rappresentate dai dischi gialli e rossi sulla carta.

Puntare il mouse per vedere il nome della stazione.

Clicca sopra per visualizzare le osservazioni e previsioni meteorologiche.

Per cambiare la mappa : fare clic sui pulsanti verdi con una croce nera per ingrandire, il pulsante verde con un trattino per diminuire, o sulla freccia verde per le mappe adiacenti.


METAR-TAF: